createdAt,value
2023-05-14T00:00:23.539Z,15.30
2023-05-14T00:02:51.689Z,15.80
2023-05-14T00:05:19.894Z,15.47
2023-05-14T00:07:49.275Z,16.30
2023-05-14T00:10:19.073Z,16.33
2023-05-14T00:12:47.089Z,16.27
2023-05-14T00:15:15.110Z,16.00
2023-05-14T00:17:43.505Z,16.07
2023-05-14T00:20:12.680Z,15.87
2023-05-14T00:22:41.311Z,15.87
2023-05-14T00:25:11.092Z,16.23
2023-05-14T00:27:39.140Z,16.13
2023-05-14T00:30:08.248Z,16.73
2023-05-14T00:32:36.212Z,16.23
2023-05-14T00:35:04.520Z,16.47
2023-05-14T00:37:32.718Z,16.57
2023-05-14T00:40:00.876Z,17.33
2023-05-14T00:42:30.195Z,18.20
2023-05-14T00:44:58.431Z,17.53
2023-05-14T00:47:26.474Z,17.60
2023-05-14T00:49:54.771Z,16.37
2023-05-14T00:52:23.045Z,16.67
2023-05-14T00:54:51.403Z,16.93
2023-05-14T00:57:19.875Z,16.67
2023-05-14T00:59:49.435Z,16.10
2023-05-14T01:02:17.582Z,16.00
2023-05-14T01:04:45.752Z,15.90
2023-05-14T01:07:21.600Z,17.83
2023-05-14T01:09:55.915Z,16.60
2023-05-14T01:12:34.528Z,16.10
2023-05-14T01:15:13.613Z,16.63
2023-05-14T01:17:48.037Z,17.20
2023-05-14T01:20:16.293Z,16.43
2023-05-14T01:22:45.637Z,16.90
2023-05-14T01:25:13.607Z,16.70
2023-05-14T01:27:48.755Z,16.67
2023-05-14T01:30:23.850Z,16.10
2023-05-14T01:32:57.166Z,16.63
2023-05-14T01:35:28.101Z,15.83
2023-05-14T01:37:59.357Z,16.97
2023-05-14T01:40:27.886Z,15.63
2023-05-14T01:42:56.467Z,16.20
2023-05-14T01:45:25.306Z,16.27
2023-05-14T01:47:53.468Z,16.03
2023-05-14T01:50:21.646Z,16.90
2023-05-14T01:52:51.211Z,16.37
2023-05-14T01:55:20.745Z,15.43
2023-05-14T01:57:48.780Z,16.13
2023-05-14T02:00:17.111Z,16.80
2023-05-14T02:02:45.055Z,16.77
2023-05-14T02:05:14.342Z,16.97
2023-05-14T02:07:42.388Z,17.40
2023-05-14T02:10:11.462Z,16.83
2023-05-14T02:12:40.928Z,17.80
2023-05-14T02:15:11.013Z,16.83
2023-05-14T02:17:39.618Z,17.47
2023-05-14T02:20:10.164Z,16.70
2023-05-14T02:22:41.216Z,17.23
2023-05-14T02:25:10.661Z,18.13
2023-05-14T02:27:40.213Z,17.60
2023-05-14T02:30:09.725Z,17.73
2023-05-14T02:32:38.432Z,17.53
2023-05-14T02:35:07.767Z,17.30
2023-05-14T02:37:35.806Z,18.23
2023-05-14T02:40:04.401Z,17.67
2023-05-14T02:42:32.659Z,17.30
2023-05-14T02:45:01.940Z,18.43
2023-05-14T02:47:29.976Z,18.53
2023-05-14T02:49:58.093Z,18.13
2023-05-14T02:52:26.121Z,18.43
2023-05-14T02:54:54.362Z,17.93
2023-05-14T02:57:22.355Z,18.30
2023-05-14T02:59:50.374Z,17.60
2023-05-14T03:02:20.365Z,17.43
2023-05-14T03:04:48.770Z,18.50
2023-05-14T03:07:16.985Z,17.80
2023-05-14T03:09:45.209Z,17.97
2023-05-14T03:12:14.390Z,17.47
2023-05-14T03:14:42.396Z,18.67
2023-05-14T03:17:10.392Z,18.40
2023-05-14T03:19:39.791Z,19.23
2023-05-14T03:22:08.705Z,17.50
2023-05-14T03:24:38.871Z,17.67
2023-05-14T03:27:07.068Z,17.63
2023-05-14T03:29:35.124Z,17.60
2023-05-14T03:32:03.210Z,16.67
2023-05-14T03:34:31.265Z,17.10
2023-05-14T03:37:01.538Z,17.60
2023-05-14T03:39:29.534Z,17.87
2023-05-14T03:41:58.885Z,17.63
2023-05-14T03:44:27.126Z,16.80
2023-05-14T03:46:55.185Z,18.33
2023-05-14T03:49:23.206Z,17.57
2023-05-14T03:51:51.807Z,17.83
2023-05-14T03:54:21.135Z,17.33
2023-05-14T03:56:49.157Z,16.27
2023-05-14T03:59:17.213Z,17.40
2023-05-14T04:01:45.438Z,17.27
2023-05-14T04:04:13.455Z,17.53
2023-05-14T04:06:41.500Z,16.40
2023-05-14T04:09:10.906Z,15.77
2023-05-14T04:11:40.272Z,16.20
2023-05-14T04:14:08.401Z,16.10
2023-05-14T04:16:36.466Z,16.70
2023-05-14T04:19:05.766Z,17.10
2023-05-14T04:21:33.903Z,15.90
2023-05-14T04:24:01.894Z,16.17
2023-05-14T04:26:29.861Z,17.17
2023-05-14T04:29:02.773Z,16.37
2023-05-14T04:31:31.596Z,15.90
2023-05-14T04:33:59.671Z,16.10
2023-05-14T04:36:27.708Z,16.17
2023-05-14T04:38:55.977Z,15.60
2023-05-14T04:41:24.117Z,15.30
2023-05-14T04:43:52.112Z,15.30
2023-05-14T04:46:21.617Z,14.50
2023-05-14T04:48:50.354Z,14.03
2023-05-14T04:51:18.494Z,14.30
2023-05-14T04:53:46.454Z,14.50
2023-05-14T04:56:14.503Z,12.97
2023-05-14T04:58:42.544Z,13.80
2023-05-14T05:01:10.594Z,13.53
2023-05-14T05:03:40.047Z,12.47
2023-05-14T05:06:08.648Z,13.07
2023-05-14T05:08:37.457Z,13.00
2023-05-14T05:11:06.019Z,12.00
2023-05-14T05:13:33.997Z,11.70
2023-05-14T05:16:02.160Z,12.50
2023-05-14T05:18:30.283Z,12.87
2023-05-14T05:20:59.640Z,13.00
2023-05-14T05:23:27.719Z,12.67
2023-05-14T05:25:55.771Z,11.83
2023-05-14T05:28:23.752Z,11.80
2023-05-14T05:30:51.736Z,12.03
2023-05-14T05:33:19.802Z,12.07
2023-05-14T05:35:48.208Z,11.50
2023-05-14T05:38:18.275Z,11.20
2023-05-14T05:40:46.406Z,10.97
2023-05-14T05:43:14.376Z,11.10
2023-05-14T05:45:42.468Z,11.20
2023-05-14T05:48:10.433Z,10.90
2023-05-14T05:50:38.399Z,10.47
2023-05-14T05:53:06.482Z,11.13
2023-05-14T05:55:35.993Z,11.20
2023-05-14T05:58:04.590Z,11.43
2023-05-14T06:00:32.624Z,11.37
2023-05-14T06:03:01.074Z,11.40
2023-05-14T06:05:29.162Z,12.27
2023-05-14T06:07:57.154Z,11.93
2023-05-14T06:10:25.639Z,11.67
2023-05-14T06:12:55.055Z,12.63
2023-05-14T06:15:23.472Z,11.30
2023-05-14T06:17:51.543Z,12.00
2023-05-14T06:20:20.112Z,11.83
2023-05-14T06:22:48.185Z,11.53
2023-05-14T06:25:16.219Z,11.57
2023-05-14T06:27:44.178Z,12.77
2023-05-14T06:30:14.927Z,11.10
2023-05-14T06:32:42.908Z,11.30
2023-05-14T06:35:11.101Z,11.13
2023-05-14T06:37:39.206Z,11.43
2023-05-14T06:40:08.554Z,11.73
2023-05-14T06:42:36.546Z,12.00
2023-05-14T06:45:06.917Z,10.87
2023-05-14T06:47:36.354Z,10.77
2023-05-14T06:50:04.632Z,10.87
2023-05-14T06:52:32.620Z,10.80
2023-05-14T06:55:01.146Z,10.43
2023-05-14T06:57:29.178Z,10.43
2023-05-14T06:59:57.455Z,10.20
2023-05-14T07:02:25.499Z,10.00
2023-05-14T07:04:55.925Z,8.13
2023-05-14T07:07:23.875Z,8.67
2023-05-14T07:09:52.130Z,8.63
2023-05-14T07:12:20.153Z,9.43
2023-05-14T07:14:48.119Z,8.43
2023-05-14T07:17:16.528Z,7.23
2023-05-14T07:19:44.672Z,6.63
2023-05-14T07:22:14.015Z,6.43
2023-05-14T07:24:42.020Z,6.00
2023-05-14T07:27:10.028Z,6.07
2023-05-14T07:29:38.098Z,5.70
2023-05-14T07:32:06.591Z,4.83
2023-05-14T07:34:34.729Z,4.77
2023-05-14T07:37:03.092Z,4.70
2023-05-14T07:39:32.413Z,4.93
2023-05-14T07:42:01.060Z,4.20
2023-05-14T07:44:29.047Z,3.90
2023-05-14T07:46:57.077Z,3.93
2023-05-14T07:49:25.042Z,3.87
2023-05-14T07:51:53.307Z,3.80
2023-05-14T07:54:21.352Z,3.40
2023-05-14T07:56:51.053Z,3.27
2023-05-14T07:59:19.188Z,3.03
2023-05-14T08:01:47.448Z,3.60
2023-05-14T08:04:16.255Z,3.03
2023-05-14T08:06:44.455Z,3.70
2023-05-14T08:09:12.560Z,3.40
2023-05-14T08:11:40.634Z,3.67
2023-05-14T08:14:09.996Z,3.80
2023-05-14T08:16:38.593Z,3.60
2023-05-14T08:19:06.694Z,3.53
2023-05-14T08:21:34.705Z,3.27
2023-05-14T08:24:02.631Z,3.23
2023-05-14T08:26:30.669Z,3.43
2023-05-14T08:28:58.682Z,3.60
2023-05-14T08:31:28.159Z,3.20
2023-05-14T08:33:56.328Z,3.30
2023-05-14T08:36:24.344Z,2.90
2023-05-14T08:38:52.495Z,2.80
2023-05-14T08:41:21.293Z,2.75
2023-05-14T08:43:59.380Z,3.17
2023-05-14T08:46:31.712Z,3.00
2023-05-14T08:49:08.821Z,3.00
2023-05-14T08:51:37.296Z,2.88
2023-05-14T08:54:06.662Z,2.90
2023-05-14T08:56:34.828Z,2.70
2023-05-14T08:59:02.847Z,2.60
2023-05-14T09:01:32.378Z,2.50
2023-05-14T09:04:06.958Z,2.30
2023-05-14T09:06:35.943Z,2.38
2023-05-14T09:09:04.123Z,3.00
2023-05-14T09:11:32.073Z,2.65
2023-05-14T09:14:00.141Z,2.33
2023-05-14T09:16:28.501Z,2.60
2023-05-14T09:18:57.938Z,2.55
2023-05-14T09:21:26.049Z,2.55
2023-05-14T09:23:56.360Z,2.10
2023-05-14T09:26:26.548Z,2.60
2023-05-14T09:29:01.747Z,2.40
2023-05-14T09:31:30.809Z,2.97
2023-05-14T09:34:01.226Z,2.40
2023-05-14T09:36:29.385Z,2.50
2023-05-14T09:38:58.533Z,2.55
2023-05-14T09:41:26.882Z,2.03
2023-05-14T09:43:56.808Z,2.38
2023-05-14T09:46:30.039Z,2.55
2023-05-14T09:48:58.441Z,2.00
2023-05-14T09:51:31.454Z,2.70
2023-05-14T09:54:00.059Z,2.20
2023-05-14T09:56:28.097Z,2.60
2023-05-14T09:58:56.091Z,2.13
2023-05-14T10:01:24.805Z,1.70
2023-05-14T10:03:54.587Z,1.98
2023-05-14T10:06:26.812Z,2.03
2023-05-14T10:08:57.984Z,2.10
2023-05-14T10:11:29.662Z,2.20
2023-05-14T10:14:04.239Z,2.10
2023-05-14T10:16:35.869Z,1.98
2023-05-14T10:19:09.534Z,1.80
2023-05-14T10:21:39.215Z,1.95
2023-05-14T10:24:11.004Z,1.80
2023-05-14T10:26:42.050Z,2.67
2023-05-14T10:29:11.311Z,1.63
2023-05-14T10:31:50.140Z,1.98
2023-05-14T10:34:38.679Z,2.08
2023-05-14T10:37:09.022Z,2.08
2023-05-14T10:39:48.974Z,2.40
2023-05-14T10:42:19.703Z,2.53
2023-05-14T10:44:51.375Z,1.98
2023-05-14T10:47:19.637Z,1.90
2023-05-14T10:49:55.520Z,2.40
2023-05-14T10:52:24.229Z,2.10
2023-05-14T10:54:54.828Z,2.08
2023-05-14T10:57:24.874Z,2.10
2023-05-14T10:59:55.154Z,2.30
2023-05-14T11:02:25.953Z,2.45
2023-05-14T11:05:00.226Z,2.42
2023-05-14T11:07:33.403Z,2.03
2023-05-14T11:10:05.529Z,2.20
2023-05-14T11:12:34.534Z,2.28
2023-05-14T11:15:03.908Z,2.13
2023-05-14T11:17:33.173Z,2.22
2023-05-14T11:20:01.278Z,2.15
2023-05-14T11:22:29.436Z,2.00
2023-05-14T11:24:57.507Z,2.45
2023-05-14T11:27:27.328Z,1.90
2023-05-14T11:29:56.107Z,2.20
2023-05-14T11:32:24.409Z,2.10
2023-05-14T11:34:52.473Z,2.22
2023-05-14T11:37:24.421Z,2.40
2023-05-14T11:39:54.949Z,2.13
2023-05-14T11:42:23.789Z,2.10
2023-05-14T11:44:54.049Z,2.40
2023-05-14T11:47:27.487Z,1.90
2023-05-14T11:49:55.632Z,2.10
2023-05-14T11:52:24.215Z,2.10
2023-05-14T11:54:52.619Z,1.92
2023-05-14T11:57:22.391Z,2.10
2023-05-14T11:59:57.189Z,1.95
2023-05-14T12:02:29.157Z,1.95
2023-05-14T12:04:58.428Z,2.00
2023-05-14T12:07:30.545Z,2.17
2023-05-14T12:10:02.504Z,2.13
2023-05-14T12:12:36.198Z,2.20
2023-05-14T12:15:12.399Z,2.50
2023-05-14T12:17:40.453Z,2.10
2023-05-14T12:20:12.219Z,1.80
2023-05-14T12:22:42.415Z,1.90
2023-05-14T12:25:14.215Z,1.95
2023-05-14T12:27:42.500Z,1.85
2023-05-14T12:30:21.298Z,1.90
2023-05-14T12:32:51.824Z,1.90
2023-05-14T12:35:20.246Z,2.53
2023-05-14T12:37:48.273Z,1.80
2023-05-14T12:40:16.557Z,1.70
2023-05-14T12:42:44.504Z,1.70
2023-05-14T12:45:14.079Z,1.70
2023-05-14T12:47:42.041Z,1.88
2023-05-14T12:50:10.551Z,2.10
2023-05-14T12:52:39.891Z,2.13
2023-05-14T12:55:09.174Z,1.90
2023-05-14T12:57:39.085Z,1.60
2023-05-14T13:00:12.970Z,2.00
2023-05-14T13:02:43.880Z,1.73
2023-05-14T13:05:12.905Z,1.83
2023-05-14T13:07:42.287Z,2.10
2023-05-14T13:10:11.424Z,2.00
2023-05-14T13:12:39.661Z,1.75
2023-05-14T13:15:08.666Z,1.95
2023-05-14T13:17:37.437Z,2.10
2023-05-14T13:20:08.285Z,1.80
2023-05-14T13:22:36.317Z,1.75
2023-05-14T13:25:04.889Z,1.88
2023-05-14T13:27:33.668Z,1.98
2023-05-14T13:30:01.653Z,1.83
2023-05-14T13:32:29.696Z,1.98
2023-05-14T13:34:57.775Z,1.90
2023-05-14T13:37:27.352Z,1.80
2023-05-14T13:39:55.316Z,1.67
2023-05-14T13:42:23.731Z,2.00
2023-05-14T13:44:51.760Z,1.88
2023-05-14T13:47:19.985Z,2.55
2023-05-14T13:49:48.032Z,2.22
2023-05-14T13:52:16.249Z,1.80
2023-05-14T13:54:45.768Z,1.95
2023-05-14T13:57:13.837Z,1.90
2023-05-14T13:59:42.041Z,1.85
2023-05-14T14:02:10.575Z,1.60
2023-05-14T14:04:38.565Z,2.05
2023-05-14T14:07:06.661Z,1.60
2023-05-14T14:09:36.698Z,1.88
2023-05-14T14:12:06.857Z,1.80
2023-05-14T14:14:34.926Z,1.70
2023-05-14T14:17:03.138Z,1.70
2023-05-14T14:19:31.220Z,1.92
2023-05-14T14:21:59.379Z,1.92
2023-05-14T14:24:27.425Z,1.75
2023-05-14T14:26:55.372Z,1.70
2023-05-14T14:29:24.720Z,1.90
2023-05-14T14:31:52.784Z,1.85
2023-05-14T14:34:20.837Z,2.05
2023-05-14T14:36:49.164Z,1.83
2023-05-14T14:39:17.161Z,1.52
2023-05-14T14:41:45.484Z,1.88
2023-05-14T14:44:13.466Z,1.83
2023-05-14T14:46:43.326Z,2.17
2023-05-14T14:49:11.320Z,1.70
2023-05-14T14:51:39.291Z,1.80
2023-05-14T14:54:07.393Z,1.95
2023-05-14T14:56:35.725Z,1.85
2023-05-14T14:59:03.821Z,1.70
2023-05-14T15:01:31.981Z,2.00
2023-05-14T15:04:01.553Z,1.45
2023-05-14T15:06:29.593Z,1.80
2023-05-14T15:08:57.630Z,1.80
2023-05-14T15:11:25.975Z,1.80
2023-05-14T15:13:54.027Z,2.08
2023-05-14T15:16:22.212Z,1.80
2023-05-14T15:18:50.341Z,1.85
2023-05-14T15:21:19.747Z,1.92
2023-05-14T15:23:47.765Z,2.00
2023-05-14T15:26:15.778Z,2.13
2023-05-14T15:28:43.871Z,1.98
2023-05-14T15:31:12.002Z,1.90
2023-05-14T15:33:41.647Z,1.80
2023-05-14T15:36:10.078Z,1.90
2023-05-14T15:38:39.442Z,2.20
2023-05-14T15:41:07.738Z,1.65
2023-05-14T15:43:37.176Z,1.80
2023-05-14T15:46:05.249Z,1.80
2023-05-14T15:48:33.713Z,1.98
2023-05-14T15:51:01.747Z,1.95
2023-05-14T15:53:30.094Z,1.67
2023-05-14T15:55:59.486Z,1.90
2023-05-14T15:58:27.930Z,1.88
2023-05-14T16:00:56.009Z,1.70
2023-05-14T16:03:24.217Z,1.67
2023-05-14T16:05:52.342Z,1.85
2023-05-14T16:08:20.379Z,1.92
2023-05-14T16:10:48.419Z,1.92
2023-05-14T16:13:17.819Z,2.53
2023-05-14T16:15:45.812Z,2.00
2023-05-14T16:18:13.829Z,2.00
2023-05-14T16:20:41.845Z,2.05
2023-05-14T16:23:09.780Z,2.10
2023-05-14T16:25:38.220Z,2.10
2023-05-14T16:28:07.866Z,2.08
2023-05-14T16:30:37.171Z,2.03
2023-05-14T16:33:06.561Z,2.17
2023-05-14T16:35:34.705Z,2.10
2023-05-14T16:38:02.758Z,1.90
2023-05-14T16:40:30.721Z,2.10
2023-05-14T16:42:58.798Z,2.42
2023-05-14T16:45:27.069Z,2.10
2023-05-14T16:47:56.572Z,2.45
2023-05-14T16:50:24.602Z,2.05
2023-05-14T16:52:52.695Z,2.22
2023-05-14T16:55:20.628Z,2.13
2023-05-14T16:57:48.642Z,2.17
2023-05-14T17:00:17.881Z,1.98
2023-05-14T17:02:49.028Z,1.92
2023-05-14T17:05:18.622Z,2.38
2023-05-14T17:07:46.626Z,2.30
2023-05-14T17:10:14.686Z,2.37
2023-05-14T17:12:42.680Z,2.57
2023-05-14T17:15:11.605Z,2.10
2023-05-14T17:17:39.678Z,2.17
2023-05-14T17:20:08.750Z,2.00
2023-05-14T17:22:38.246Z,2.37
2023-05-14T17:25:07.346Z,2.20
2023-05-14T17:27:36.151Z,2.43
2023-05-14T17:30:04.836Z,2.23
2023-05-14T17:32:32.924Z,2.30
2023-05-14T17:35:00.932Z,3.00
2023-05-14T17:37:28.938Z,2.40
2023-05-14T17:39:58.352Z,2.60
2023-05-14T17:42:26.416Z,2.30
2023-05-14T17:44:54.814Z,2.50
2023-05-14T17:47:22.798Z,2.63
2023-05-14T17:49:50.863Z,2.60
2023-05-14T17:52:19.114Z,2.87
2023-05-14T17:54:47.094Z,2.70
2023-05-14T17:57:16.467Z,2.80
2023-05-14T17:59:44.413Z,3.03
2023-05-14T18:02:12.423Z,2.50
2023-05-14T18:04:40.494Z,2.40
2023-05-14T18:07:08.590Z,2.73
2023-05-14T18:09:36.554Z,2.93
2023-05-14T18:12:04.676Z,2.57
2023-05-14T18:14:34.031Z,2.57
2023-05-14T18:17:02.216Z,3.03
2023-05-14T18:19:30.279Z,2.60
2023-05-14T18:21:58.319Z,3.27
2023-05-14T18:24:26.381Z,3.73
2023-05-14T18:26:55.195Z,3.13
2023-05-14T18:29:23.229Z,3.23
2023-05-14T18:31:52.766Z,3.27
2023-05-14T18:34:20.759Z,2.73
2023-05-14T18:36:48.765Z,3.07
2023-05-14T18:39:16.968Z,3.03
2023-05-14T18:41:48.388Z,3.27
2023-05-14T18:44:16.515Z,3.07
2023-05-14T18:46:46.765Z,3.50
2023-05-14T18:49:23.504Z,3.80
2023-05-14T18:51:51.523Z,3.87
2023-05-14T18:54:19.526Z,3.77
2023-05-14T18:56:47.842Z,3.60
2023-05-14T18:59:16.053Z,3.43
2023-05-14T19:01:44.044Z,4.50
2023-05-14T19:04:12.042Z,4.40
2023-05-14T19:06:41.449Z,4.20
2023-05-14T19:09:10.720Z,4.20
2023-05-14T19:11:38.701Z,4.23
2023-05-14T19:14:06.744Z,4.50
2023-05-14T19:16:34.882Z,4.23
2023-05-14T19:19:03.053Z,3.93
2023-05-14T19:21:31.062Z,4.00
2023-05-14T19:24:00.390Z,3.87
2023-05-14T19:26:28.785Z,4.10
2023-05-14T19:28:58.979Z,4.57
2023-05-14T19:31:27.271Z,4.30
2023-05-14T19:33:55.565Z,4.80
2023-05-14T19:36:23.703Z,4.70
2023-05-14T19:38:51.769Z,5.33
2023-05-14T19:41:21.612Z,5.23
2023-05-14T19:43:49.776Z,5.40
2023-05-14T19:46:17.914Z,4.80
2023-05-14T19:48:45.944Z,5.80
2023-05-14T19:51:13.941Z,4.63
2023-05-14T19:53:41.927Z,5.47
2023-05-14T19:56:10.049Z,5.20
2023-05-14T19:58:39.441Z,4.63
2023-05-14T20:01:07.483Z,4.70
2023-05-14T20:03:35.710Z,4.20
2023-05-14T20:06:03.694Z,4.50
2023-05-14T20:08:31.688Z,4.60
2023-05-14T20:10:59.657Z,4.27
2023-05-14T20:13:27.668Z,4.77
2023-05-14T20:15:57.191Z,4.47
2023-05-14T20:18:25.236Z,4.33
2023-05-14T20:20:53.244Z,4.70
2023-05-14T20:23:21.280Z,4.63
2023-05-14T20:25:49.395Z,4.17
2023-05-14T20:28:17.369Z,4.87
2023-05-14T20:30:45.595Z,4.63
2023-05-14T20:33:15.175Z,4.87
2023-05-14T20:35:44.064Z,4.60
2023-05-14T20:38:12.619Z,4.50
2023-05-14T20:40:40.913Z,4.53
2023-05-14T20:43:08.951Z,4.83
2023-05-14T20:45:37.180Z,4.60
2023-05-14T20:48:07.997Z,4.80
2023-05-14T20:50:37.497Z,4.73
2023-05-14T20:53:05.809Z,4.80
2023-05-14T20:55:33.967Z,5.07
2023-05-14T20:58:02.030Z,4.80
2023-05-14T21:00:30.081Z,4.63
2023-05-14T21:02:59.550Z,4.73
2023-05-14T21:05:28.031Z,4.80
2023-05-14T21:07:57.581Z,4.90
2023-05-14T21:10:25.901Z,5.13
2023-05-14T21:12:54.234Z,5.30
2023-05-14T21:15:22.823Z,4.87
2023-05-14T21:17:51.329Z,5.10
2023-05-14T21:20:19.603Z,5.43
2023-05-14T21:22:47.630Z,5.33
2023-05-14T21:25:17.313Z,5.10
2023-05-14T21:27:45.343Z,5.27
2023-05-14T21:30:14.522Z,5.43
2023-05-14T21:32:42.824Z,5.27
2023-05-14T21:35:11.197Z,5.43
2023-05-14T21:37:39.835Z,5.40
2023-05-14T21:40:09.270Z,5.00
2023-05-14T21:42:39.462Z,5.03
2023-05-14T21:45:08.590Z,5.30
2023-05-14T21:47:37.040Z,5.80
2023-05-14T21:50:06.004Z,5.23
2023-05-14T21:52:34.094Z,6.10
2023-05-14T21:55:02.129Z,5.43
2023-05-14T21:57:34.110Z,5.47
2023-05-14T22:00:04.791Z,5.57
2023-05-14T22:02:33.459Z,6.00
2023-05-14T22:05:01.500Z,5.70
2023-05-14T22:07:29.642Z,5.90
2023-05-14T22:09:57.766Z,6.50
2023-05-14T22:12:26.135Z,6.67
2023-05-14T22:14:54.156Z,6.67
2023-05-14T22:17:23.587Z,6.17
2023-05-14T22:19:51.784Z,6.57
2023-05-14T22:22:19.788Z,6.50
2023-05-14T22:24:47.797Z,6.80
2023-05-14T22:27:15.948Z,6.67
2023-05-14T22:29:44.109Z,6.30
2023-05-14T22:32:12.113Z,6.87
2023-05-14T22:34:41.484Z,6.63
2023-05-14T22:37:09.563Z,6.83
2023-05-14T22:39:37.492Z,6.30
2023-05-14T22:42:06.166Z,6.70
2023-05-14T22:44:35.362Z,6.00
2023-05-14T22:47:04.934Z,6.40
2023-05-14T22:49:33.156Z,6.17
2023-05-14T22:52:02.502Z,6.30
2023-05-14T22:54:30.519Z,6.13
2023-05-14T22:56:58.548Z,6.50
2023-05-14T22:59:26.492Z,6.43
2023-05-14T23:01:54.525Z,7.20
2023-05-14T23:04:22.575Z,6.60
2023-05-14T23:06:50.636Z,6.70
2023-05-14T23:09:19.965Z,6.93
2023-05-14T23:11:48.000Z,6.27
2023-05-14T23:14:17.744Z,5.83
2023-05-14T23:16:45.954Z,6.50
2023-05-14T23:19:14.081Z,6.07
2023-05-14T23:21:42.109Z,6.27
2023-05-14T23:24:10.201Z,6.37
2023-05-14T23:26:39.552Z,5.90
2023-05-14T23:29:07.555Z,5.90
2023-05-14T23:31:36.963Z,5.97
2023-05-14T23:34:05.085Z,6.60
2023-05-14T23:36:33.544Z,6.40
2023-05-14T23:39:01.558Z,6.43
2023-05-14T23:41:29.496Z,5.73
2023-05-14T23:43:58.864Z,6.10
2023-05-14T23:46:27.009Z,6.17
2023-05-14T23:48:56.999Z,5.30
2023-05-14T23:51:25.356Z,5.03
2023-05-14T23:53:58.121Z,5.90
2023-05-14T23:56:27.388Z,5.77
2023-05-14T23:58:55.529Z,5.03
